Time;durP1;ratioP1;P1;durP2;ratioP2;P2;SDS_P1;SDS_P2;PMS_P1;PMS_P2;Temp;Humidity;BMP_temperature;BMP_pressure;BME280_temperature;BME280_humidity;BME280_pressure;Samples;Min_cycle;Max_cycle;Signal;HPM_P1;HPM_P2
2022/09/20 00:00:41;;;;;;;0.00;0.00;;;9.20;99.90;;;;;;6216459;23;20016;-84
2022/09/20 00:03:07;;;;;;;;;;;9.20;99.90;;;;;;6195630;22;20012;-84
2022/09/20 00:05:37;;;;;;;0.00;0.00;;;9.20;99.90;;;;;;6241852;23;19923;-84
2022/09/20 00:08:05;;;;;;;0.00;0.00;;;9.20;99.90;;;;;;6195837;22;20020;-84
2022/09/20 00:10:35;;;;;;;0.47;0.47;;;9.10;99.90;;;;;;6217161;23;20077;-87
2022/09/20 00:13:01;;;;;;;0.03;0.03;;;9.70;99.90;;;;;;6244751;22;20467;-84
2022/09/20 00:15:28;;;;;;;0.10;0.10;;;9.70;99.90;;;;;;6216866;23;20467;-89
2022/09/20 00:17:54;;;;;;;0.20;0.20;;;9.10;99.90;;;;;;6192998;22;20070;-84
2022/09/20 00:20:20;;;;;;;0.00;0.00;;;9.10;99.90;;;;;;6217450;23;20016;-83
2022/09/20 00:22:48;;;;;;;0.10;0.10;;;9.10;99.90;;;;;;6191890;23;20055;-84
2022/09/20 00:25:15;;;;;;;0.10;0.00;;;9.00;99.90;;;;;;6197049;22;20098;-84
2022/09/20 00:27:41;;;;;;;0.05;0.05;;;9.00;99.90;;;;;;6216957;23;20027;-84
2022/09/20 00:30:08;;;;;;;0.03;0.03;;;9.00;99.90;;;;;;6245751;22;20016;-88
2022/09/20 00:32:33;;;;;;;0.22;0.20;;;9.00;99.90;;;;;;6191597;23;20247;-84
2022/09/20 00:35:09;;;;;;;0.47;0.37;;;8.90;99.90;;;;;;6243807;22;20027;-83
2022/09/20 00:37:37;;;;;;;0.85;0.60;;;8.90;99.90;;;;;;6193265;23;20024;-84
2022/09/20 00:40:05;;;;;;;0.77;0.63;;;8.90;99.90;;;;;;6195304;22;20016;-84
2022/09/20 00:42:31;;;;;;;0.63;0.63;;;8.90;99.90;;;;;;6217363;23;20428;-88
2022/09/20 00:45:03;;;;;;;0.20;0.20;;;8.90;99.90;;;;;;6219910;22;20016;-87
2022/09/20 00:47:35;;;;;;;0.13;0.10;;;8.90;99.90;;;;;;6247751;22;20023;-84
2022/09/20 00:50:19;;;;;;;0.55;0.38;;;8.80;99.90;;;;;;6222446;22;20098;-84
2022/09/20 00:52:50;;;;;;;0.20;0.20;;;8.80;99.90;;;;;;6221139;22;20024;-84
2022/09/20 00:55:17;;;;;;;0.15;0.15;;;8.70;99.90;;;;;;6222546;22;20037;-88
2022/09/20 00:57:45;;;;;;;0.30;0.30;;;8.70;99.90;;;;;;6221576;22;20026;-84
2022/09/20 01:00:13;;;;;;;0.30;0.30;;;8.70;99.90;;;;;;6223388;22;20047;-84
2022/09/20 01:02:44;;;;;;;0.60;0.60;;;8.60;99.90;;;;;;6223722;22;20016;-84
2022/09/20 01:05:11;;;;;;;0.32;0.32;;;8.60;99.90;;;;;;6224668;22;20054;-84
2022/09/20 01:07:37;;;;;;;0.20;0.17;;;8.50;99.90;;;;;;6223523;22;20058;-84
2022/09/20 01:10:03;;;;;;;0.43;0.33;;;8.50;99.90;;;;;;6224404;22;20059;-84
2022/09/20 01:12:33;;;;;;;0.20;0.17;;;7.40;99.90;;;;;;6224246;22;20464;-83
2022/09/20 01:15:01;;;;;;;0.35;0.32;;;8.40;99.90;;;;;;6223657;22;20016;-87
2022/09/20 01:17:30;;;;;;;0.75;0.30;;;8.40;99.90;;;;;;6199396;22;20047;-84
2022/09/20 01:20:23;;;;;;;0.85;0.50;;;8.40;99.90;;;;;;6248818;22;20043;-84
2022/09/20 01:22:56;;;;;;;0.55;0.40;;;8.30;99.90;;;;;;6223608;22;20325;-84
2022/09/20 01:25:50;;;;;;;0.10;0.10;;;8.40;99.90;;;;;;6224363;22;20098;-84
2022/09/20 01:28:16;;;;;;;0.30;0.17;;;8.30;99.90;;;;;;6248918;22;20016;-84
2022/09/20 01:30:55;;;;;;;0.23;0.23;;;8.30;99.90;;;;;;6198318;22;20111;-84
2022/09/20 01:33:30;;;;;;;0.60;0.30;;;8.30;99.90;;;;;;6224343;22;20058;-84
2022/09/20 01:36:02;;;;;;;1.23;0.50;;;8.30;99.90;;;;;;6249208;22;20019;-88
2022/09/20 01:39:02;;;;;;;0.40;0.10;;;8.20;99.90;;;;;;6223693;22;20015;-84
2022/09/20 01:42:06;;;;;;;0.17;0.17;;;8.20;99.90;;;;;;6223703;22;20019;-84
2022/09/20 01:44:52;;;;;;;0.28;0.10;;;8.10;99.90;;;;;;6127262;23;20025;-84
2022/09/20 01:47:31;;;;;;;0.32;0.32;;;8.10;99.90;;;;;;6240071;22;20047;-84
2022/09/20 01:50:31;;;;;;;0.40;0.20;;;8.10;99.90;;;;;;6248594;22;20051;-84
2022/09/20 01:53:34;;;;;;;0.13;0.10;;;8.00;99.90;;;;;;6248563;22;20016;-84
2022/09/20 01:56:16;;;;;;;0.40;0.40;;;8.00;99.90;;;;;;6249090;22;20271;-84
2022/09/20 01:59:00;;;;;;;0.10;0.10;;;7.90;99.90;;;;;;6223071;22;20344;-88
2022/09/20 02:02:00;;;;;;;0.10;0.10;;;7.80;99.90;;;;;;6223982;22;20114;-84
2022/09/20 02:04:41;;;;;;;1.88;0.40;;;7.80;99.90;;;;;;6223924;22;20012;-83
2022/09/20 02:07:18;;;;;;;0.30;0.10;;;7.70;99.90;;;;;;6223195;22;20086;-84
2022/09/20 02:10:06;;;;;;;0.00;0.00;;;7.60;99.90;;;;;;6248323;22;20016;-89
2022/09/20 02:12:31;;;;;;;;;;;7.60;99.90;;;;;;6223937;22;20020;-84
2022/09/20 02:14:57;;;;;;;0.28;0.08;;;7.50;99.90;;;;;;6248269;22;19922;-84
2022/09/20 02:17:56;;;;;;;0.20;0.20;;;7.50;99.90;;;;;;6223829;22;20022;-83
2022/09/20 02:20:47;;;;;;;0.00;0.00;;;7.40;99.90;;;;;;6249100;22;20099;-83
2022/09/20 02:23:31;;;;;;;0.20;0.20;;;7.40;99.90;;;;;;6223548;22;20112;-85
2022/09/20 02:26:29;;;;;;;0.08;0.00;;;7.40;99.90;;;;;;6223085;22;20081;-84
2022/09/20 02:29:18;;;;;;;0.10;0.10;;;7.30;99.90;;;;;;6177737;22;20031;-85
2022/09/20 02:32:02;;;;;;;0.00;0.00;;;7.30;99.90;;;;;;6249197;22;20034;-84
2022/09/20 02:35:04;;;;;;;0.15;0.05;;;7.30;99.90;;;;;;6223827;22;20035;-84
2022/09/20 02:37:58;;;;;;;0.00;0.00;;;7.30;99.90;;;;;;6249516;22;20015;-84
2022/09/20 02:40:42;;;;;;;0.00;0.00;;;7.30;99.90;;;;;;6223241;22;20020;-84
2022/09/20 02:43:16;;;;;;;0.00;0.00;;;7.30;99.90;;;;;;6222241;22;20012;-84
2022/09/20 02:45:57;;;;;;;0.10;0.10;;;7.30;99.90;;;;;;6247949;22;20019;-83
2022/09/20 02:48:33;;;;;;;0.00;0.00;;;7.30;99.90;;;;;;6223213;22;20077;-85
2022/09/20 02:51:12;;;;;;;0.00;0.00;;;7.30;99.90;;;;;;6222469;22;20043;-84
2022/09/20 02:54:03;;;;;;;0.10;0.10;;;7.30;99.90;;;;;;6248915;22;20015;-84
2022/09/20 02:56:47;;;;;;;0.20;0.05;;;7.30;99.90;;;;;;6223695;22;20126;-83
2022/09/20 02:59:44;;;;;;;0.10;0.00;;;7.30;99.90;;;;;;6222689;22;20067;-84
2022/09/20 03:02:15;;;;;;;0.03;0.03;;;7.40;99.90;;;;;;6223031;22;20528;-84
2022/09/20 03:04:55;;;;;;;0.10;0.10;;;7.40;99.90;;;;;;6223125;22;20023;-84
2022/09/20 03:07:29;;;;;;;0.00;0.00;;;7.40;99.90;;;;;;6222985;22;20113;-84
2022/09/20 03:10:27;;;;;;;0.00;0.00;;;7.40;99.90;;;;;;6222075;22;20077;-84
2022/09/20 03:13:17;;;;;;;0.00;0.00;;;7.40;99.90;;;;;;6140960;22;20022;-85
2022/09/20 03:16:07;;;;;;;0.08;0.08;;;7.40;99.90;;;;;;6248626;22;20069;-84
2022/09/20 03:18:56;;;;;;;0.10;0.10;;;7.30;99.90;;;;;;6223182;22;20444;-83
2022/09/20 03:21:39;;;;;;;0.00;0.00;;;7.50;99.90;;;;;;6178123;22;20047;-84
2022/09/20 03:24:42;;;;;;;0.00;0.00;;;7.20;99.90;;;;;;6247399;22;20058;-84
2022/09/20 03:27:15;;;;;;;0.00;0.00;;;7.20;99.90;;;;;;6222511;22;20482;-84
2022/09/20 03:29:58;;;;;;;0.00;0.00;;;7.20;99.90;;;;;;6248231;22;20020;-87
2022/09/20 03:33:20;;;;;;;0.20;0.10;;;7.10;99.90;;;;;;6247899;22;20015;-84
2022/09/20 03:36:23;;;;;;;0.10;0.10;;;7.00;99.90;;;;;;6097776;23;20098;-84
2022/09/20 03:38:57;;;;;;;0.10;0.00;;;7.00;99.90;;;;;;6097109;23;20022;-85
2022/09/20 03:41:23;;;;;;;0.00;0.00;;;7.00;99.90;;;;;;6210524;22;20038;-84
2022/09/20 03:43:55;;;;;;;0.00;0.00;;;6.90;99.90;;;;;;6247575;22;20436;-83
2022/09/20 03:46:25;;;;;;;0.10;0.10;;;6.90;99.90;;;;;;6222747;22;20022;-83
2022/09/20 03:49:15;;;;;;;0.22;0.10;;;7.00;99.90;;;;;;6248426;22;20042;-86
2022/09/20 03:52:02;;;;;;;0.00;0.00;;;7.00;99.90;;;;;;6247975;22;20436;-84
2022/09/20 03:54:51;;;;;;;0.10;0.10;;;6.90;99.90;;;;;;6222869;22;20020;-83
2022/09/20 03:57:26;;;;;;;0.30;0.30;;;6.90;99.90;;;;;;6221267;22;20314;-83
2022/09/20 04:00:11;;;;;;;0.00;0.00;;;7.40;99.90;;;;;;6248353;22;20027;-83
2022/09/20 04:03:16;;;;;;;0.00;0.00;;;6.90;99.90;;;;;;6221541;22;20095;-84
2022/09/20 04:06:19;;;;;;;0.10;0.10;;;6.80;99.90;;;;;;6247832;22;20015;-83
2022/09/20 04:09:06;;;;;;;0.10;0.00;;;6.80;99.90;;;;;;6248008;22;20321;-83
2022/09/20 04:12:13;;;;;;;0.00;0.00;;;6.80;99.90;;;;;;6222299;22;20194;-83
2022/09/20 04:15:17;;;;;;;0.40;0.17;;;6.80;99.90;;;;;;6222893;22;20090;-83
2022/09/20 04:18:16;;;;;;;0.00;0.00;;;6.80;99.90;;;;;;6248274;22;20479;-84
2022/09/20 04:20:47;;;;;;;;;;;6.90;99.90;;;;;;6223063;22;20074;-84
2022/09/20 04:23:48;;;;;;;0.00;0.00;;;7.00;99.90;;;;;;6220749;22;19919;-84
2022/09/20 04:26:21;;;;;;;0.52;0.10;;;7.10;99.90;;;;;;6222278;22;20073;-84
2022/09/20 04:29:19;;;;;;;0.10;0.10;;;7.10;99.90;;;;;;6247378;22;20317;-83
2022/09/20 04:31:58;;;;;;;0.15;0.13;;;7.20;99.90;;;;;;6202003;22;20020;-83
2022/09/20 04:37:50;;;;;;;0.00;0.00;;;7.40;99.90;;;;;;6214166;22;20066;-84
2022/09/20 04:40:33;;;;;;;0.00;0.00;;;7.40;99.90;;;;;;6197002;22;20038;-84
2022/09/20 04:43:03;;;;;;;0.52;0.10;;;7.50;99.90;;;;;;6246433;22;20059;-83
2022/09/20 04:45:50;;;;;;;0.10;0.10;;;7.60;99.90;;;;;;6221869;22;20077;-83
2022/09/20 04:48:15;;;;;;;0.00;0.00;;;7.60;99.90;;;;;;6222005;22;20023;-84
2022/09/20 04:51:19;;;;;;;0.00;0.00;;;7.70;99.90;;;;;;6222270;22;20055;-83
2022/09/20 04:54:23;;;;;;;0.00;0.00;;;7.80;99.90;;;;;;6221850;22;20015;-83
2022/09/20 04:57:46;;;;;;;0.00;0.00;;;7.90;99.90;;;;;;6247525;22;20529;-83
2022/09/20 05:00:17;;;;;;;0.38;0.10;;;8.00;99.90;;;;;;6071345;23;20014;-84
2022/09/20 05:03:18;;;;;;;0.00;0.00;;;8.10;99.90;;;;;;6242908;22;20088;-83
2022/09/20 05:06:21;;;;;;;0.00;0.00;;;8.10;99.90;;;;;;6221299;22;20042;-83
2022/09/20 05:09:12;;;;;;;0.03;0.00;;;8.20;99.90;;;;;;6247321;22;20095;-84
2022/09/20 05:11:56;;;;;;;0.20;0.00;;;8.30;99.90;;;;;;6247094;22;20019;-83
2022/09/20 05:14:36;;;;;;;0.10;0.08;;;8.30;99.90;;;;;;6246504;22;20057;-83
2022/09/20 05:17:17;;;;;;;0.00;0.00;;;8.30;99.90;;;;;;6247950;22;20011;-84
2022/09/20 05:20:10;;;;;;;0.03;0.03;;;8.30;99.90;;;;;;6247337;22;20031;-83
2022/09/20 05:23:08;;;;;;;0.03;0.03;;;8.40;99.90;;;;;;6222430;22;20016;-83
2022/09/20 05:26:06;;;;;;;0.00;0.00;;;8.40;99.90;;;;;;6220934;22;20069;-83
2022/09/20 05:29:00;;;;;;;0.15;0.10;;;8.40;99.90;;;;;;6247019;22;20072;-83
2022/09/20 05:31:39;;;;;;;0.00;0.00;;;8.50;99.90;;;;;;6246724;22;20024;-83
2022/09/20 05:34:17;;;;;;;0.00;0.00;;;8.50;99.90;;;;;;6246779;22;20020;-83
2022/09/20 05:37:20;;;;;;;0.15;0.00;;;8.50;99.90;;;;;;6221785;22;20020;-83
2022/09/20 05:39:52;;;;;;;0.00;0.00;;;8.50;99.90;;;;;;6222097;22;20106;-83
2022/09/20 05:42:23;;;;;;;0.00;0.00;;;8.50;99.90;;;;;;6221493;22;20016;-83
2022/09/20 05:45:18;;;;;;;0.10;0.10;;;8.60;99.90;;;;;;6221858;22;20012;-84
2022/09/20 05:48:35;;;;;;;0.28;0.10;;;8.60;99.90;;;;;;6275899;22;20042;-86
2022/09/20 05:51:25;;;;;;;0.40;0.10;;;8.70;99.90;;;;;;6185937;22;20023;-86
2022/09/20 05:54:00;;;;;;;0.00;0.00;;;8.70;99.90;;;;;;6224103;22;20065;-86
2022/09/20 05:56:51;;;;;;;0.00;0.00;;;8.70;99.90;;;;;;6223163;22;20035;-86
2022/09/20 05:59:29;;;;;;;0.45;0.22;;;8.80;99.90;;;;;;6223564;22;20060;-86
2022/09/20 06:02:20;;;;;;;0.20;0.03;;;8.80;99.90;;;;;;6223905;22;20024;-84
2022/09/20 06:05:00;;;;;;;0.03;0.00;;;8.80;99.90;;;;;;6224050;22;20027;-85
2022/09/20 06:07:56;;;;;;;0.00;0.00;;;8.90;99.90;;;;;;6223535;22;20032;-84
2022/09/20 06:10:32;;;;;;;0.38;0.28;;;8.90;99.90;;;;;;6248471;22;20018;-83
2022/09/20 06:13:12;;;;;;;0.00;0.00;;;9.00;99.90;;;;;;6249341;22;20012;-82
2022/09/20 06:16:05;;;;;;;0.20;0.00;;;9.00;99.90;;;;;;6248557;22;20352;-82
2022/09/20 06:18:39;;;;;;;0.20;0.10;;;9.00;99.90;;;;;;6275772;22;20015;-82
2022/09/20 06:21:15;;;;;;;0.00;0.00;;;9.00;99.90;;;;;;6276230;22;20038;-82
2022/09/20 06:23:41;;;;;;;0.08;0.08;;;9.10;99.90;;;;;;6248309;22;20019;-88
2022/09/20 06:26:15;;;;;;;0.17;0.17;;;9.10;99.90;;;;;;6224279;22;20095;-83
2022/09/20 06:28:45;;;;;;;0.13;0.13;;;9.10;99.90;;;;;;6276852;22;20051;-88
2022/09/20 06:31:11;;;;;;;0.00;0.00;;;9.10;99.90;;;;;;6249590;22;20012;-84
2022/09/20 06:33:57;;;;;;;0.23;0.10;;;9.20;99.90;;;;;;6249427;22;20530;-84
2022/09/20 06:42:22;;;;;;;0.10;0.10;;;9.30;99.90;;;;;;6248525;22;20027;-86
2022/09/20 06:44:48;;;;;;;0.00;0.00;;;9.30;99.90;;;;;;6249034;22;20012;-84
2022/09/20 06:47:15;;;;;;;0.10;0.10;;;9.40;99.90;;;;;;6197997;22;20027;-85
2022/09/20 06:49:41;;;;;;;0.20;0.20;;;9.40;99.90;;;;;;6247861;22;20020;-84
2022/09/20 06:52:18;;;;;;;0.00;0.00;;;9.40;99.90;;;;;;6223587;22;20016;-84
2022/09/20 06:54:45;;;;;;;0.00;0.00;;;9.40;99.90;;;;;;6248837;22;20015;-85
2022/09/20 06:57:14;;;;;;;0.30;0.13;;;9.70;99.90;;;;;;6249099;22;20023;-84
2022/09/20 06:59:40;;;;;;;0.30;0.13;;;10.10;99.90;;;;;;6223320;22;20012;-85
2022/09/20 07:02:07;;;;;;;0.00;0.00;;;10.40;99.90;;;;;;6248616;22;20012;-85
2022/09/20 07:04:33;;;;;;;0.00;0.00;;;10.80;99.90;;;;;;6223803;22;20317;-83
2022/09/20 07:07:00;;;;;;;;;;;11.10;99.90;;;;;;6223367;22;20057;-88
2022/09/20 07:09:26;;;;;;;0.10;0.00;;;11.50;99.90;;;;;;6248177;22;19958;-85
2022/09/20 07:11:54;;;;;;;;;;;11.60;99.90;;;;;;6223481;22;20012;-85
2022/09/20 07:14:19;;;;;;;0.17;0.17;;;11.70;99.90;;;;;;6193309;23;19915;-83
2022/09/20 07:16:45;;;;;;;0.30;0.10;;;11.60;99.90;;;;;;6241582;22;20042;-87
2022/09/20 07:19:15;;;;;;;0.15;0.10;;;11.60;99.90;;;;;;6174558;22;20030;-88
2022/09/20 07:21:41;;;;;;;0.00;0.00;;;11.50;99.90;;;;;;6222808;22;20023;-87
2022/09/20 07:24:09;;;;;;;0.05;0.05;;;11.50;99.90;;;;;;6247927;22;20011;-89
2022/09/20 07:26:35;;;;;;;2.13;0.08;;;11.50;99.90;;;;;;6222873;22;20020;-86
2022/09/20 07:29:01;;;;;;;0.00;0.00;;;11.50;99.90;;;;;;6173080;22;20019;-87
2022/09/20 07:31:28;;;;;;;0.03;0.00;;;11.50;99.90;;;;;;6197581;22;20028;-87
2022/09/20 07:33:54;;;;;;;0.05;0.05;;;11.40;99.90;;;;;;6246733;22;20020;-88
2022/09/20 07:36:20;;;;;;;0.00;0.00;;;11.40;99.90;;;;;;6223309;22;20094;-88
2022/09/20 07:38:47;;;;;;;0.00;0.00;;;11.40;99.90;;;;;;6222742;22;20019;-89
2022/09/20 07:41:13;;;;;;;0.10;0.10;;;11.40;99.90;;;;;;6198325;22;20019;-85
2022/09/20 07:43:38;;;;;;;0.10;0.10;;;11.30;99.90;;;;;;6223134;22;20047;-86
2022/09/20 07:46:04;;;;;;;0.30;0.10;;;11.30;99.90;;;;;;6249497;22;20024;-86
2022/09/20 07:48:32;;;;;;;0.00;0.00;;;11.30;99.90;;;;;;6199218;22;20474;-91
2022/09/20 07:51:02;;;;;;;0.00;0.00;;;11.30;99.90;;;;;;6249470;22;20012;-86
2022/09/20 07:53:28;;;;;;;0.03;0.03;;;11.30;99.90;;;;;;6224406;22;20016;-86
2022/09/20 07:56:02;;;;;;;0.20;0.20;;;11.40;99.90;;;;;;6224496;22;20016;-86
2022/09/20 07:58:29;;;;;;;0.00;0.00;;;11.40;99.90;;;;;;6223868;22;20019;-86
2022/09/20 08:00:56;;;;;;;0.20;0.13;;;11.50;99.90;;;;;;6224317;22;20023;-86
2022/09/20 08:03:23;;;;;;;0.00;0.00;;;11.50;99.90;;;;;;6199101;22;20090;-86
2022/09/20 08:05:49;;;;;;;0.00;0.00;;;11.50;99.90;;;;;;6224012;22;20448;-86
2022/09/20 08:08:16;;;;;;;0.10;0.10;;;11.60;99.90;;;;;;6249117;22;20095;-86
2022/09/20 08:10:47;;;;;;;0.00;0.00;;;11.70;99.90;;;;;;6223468;22;20047;-86
2022/09/20 08:13:13;;;;;;;0.00;0.00;;;11.70;99.90;;;;;;6224727;22;20026;-86
2022/09/20 08:15:39;;;;;;;0.05;0.05;;;11.80;99.90;;;;;;6223770;22;20015;-87
2022/09/20 08:18:07;;;;;;;0.00;0.00;;;11.90;99.90;;;;;;6249497;22;20235;-86
2022/09/20 08:20:36;;;;;;;0.00;0.00;;;12.10;99.90;;;;;;6276363;22;20022;-88
2022/09/20 08:23:02;;;;;;;0.00;0.00;;;12.20;99.90;;;;;;6249334;22;20065;-86
2022/09/20 08:25:28;;;;;;;0.00;0.00;;;12.30;99.90;;;;;;6249232;22;20055;-86
2022/09/20 08:27:54;;;;;;;0.00;0.00;;;12.50;99.90;;;;;;6249156;22;20026;-86
2022/09/20 08:30:20;;;;;;;0.00;0.00;;;12.70;99.90;;;;;;6249418;22;20012;-86
2022/09/20 08:32:46;;;;;;;0.00;0.00;;;12.80;99.90;;;;;;6223828;22;20024;-87
2022/09/20 08:35:13;;;;;;;0.00;0.00;;;12.90;99.90;;;;;;6249274;22;20026;-86
2022/09/20 08:37:40;;;;;;;0.08;0.00;;;13.00;99.90;;;;;;6223211;22;20305;-86
2022/09/20 08:40:06;;;;;;;;;;;13.00;99.90;;;;;;6224723;22;20019;-86
2022/09/20 08:42:36;;;;;;;0.00;0.00;;;13.10;99.90;;;;;;6198877;22;19915;-87
2022/09/20 08:45:13;;;;;;;0.17;0.00;;;13.20;99.90;;;;;;6276278;22;20018;-85
2022/09/20 08:47:53;;;;;;;0.00;0.00;;;13.20;99.90;;;;;;6223510;22;20346;-87
2022/09/20 08:50:19;;;;;;;0.00;0.00;;;13.30;99.90;;;;;;6223973;22;20345;-86
2022/09/20 08:52:48;;;;;;;0.00;0.00;;;13.40;99.90;;;;;;6223602;22;20099;-86
2022/09/20 08:55:19;;;;;;;0.00;0.00;;;13.40;99.90;;;;;;6249030;22;20031;-87
2022/09/20 08:57:50;;;;;;;0.00;0.00;;;13.40;99.90;;;;;;6225669;22;20019;-87
2022/09/20 09:00:20;;;;;;;0.00;0.00;;;13.60;99.90;;;;;;6250770;22;20012;-86
2022/09/20 09:02:48;;;;;;;0.00;0.00;;;13.50;99.90;;;;;;6249709;22;20016;-87
2022/09/20 09:05:43;;;;;;;0.00;0.00;;;13.70;99.90;;;;;;6199849;22;20050;-86
2022/09/20 09:08:28;;;;;;;0.00;0.00;;;13.70;99.90;;;;;;6226441;22;20444;-87
2022/09/20 09:11:07;;;;;;;0.00;0.00;;;13.80;99.90;;;;;;6248944;22;20012;-87
2022/09/20 09:14:00;;;;;;;3.53;0.43;;;13.80;99.90;;;;;;6223884;22;20475;-87
2022/09/20 09:16:29;;;;;;;0.45;0.00;;;14.60;99.90;;;;;;6249796;22;20448;-86
2022/09/20 09:18:56;;;;;;;0.32;0.05;;;14.00;99.90;;;;;;6224167;22;20020;-87
2022/09/20 09:21:25;;;;;;;;;;;14.10;99.90;;;;;;6226311;22;20016;-87
2022/09/20 09:24:19;;;;;;;0.00;0.00;;;14.10;99.90;;;;;;6226739;22;19964;-87
2022/09/20 09:26:47;;;;;;;0.00;0.00;;;14.20;99.90;;;;;;6246709;22;20099;-87
2022/09/20 09:29:16;;;;;;;0.00;0.00;;;14.30;99.90;;;;;;6226439;22;20452;-87
2022/09/20 09:31:44;;;;;;;0.00;0.00;;;14.40;99.90;;;;;;6251231;22;20016;-93
2022/09/20 09:34:34;;;;;;;0.10;0.10;;;14.50;99.90;;;;;;6225622;22;20016;-87
2022/09/20 09:37:00;;;;;;;0.00;0.00;;;14.60;99.90;;;;;;6226261;22;20019;-86
2022/09/20 09:39:28;;;;;;;0.00;0.00;;;14.70;99.90;;;;;;6252148;22;20106;-87
2022/09/20 09:41:55;;;;;;;0.00;0.00;;;14.80;99.90;;;;;;6252827;22;20393;-86
2022/09/20 09:44:26;;;;;;;;;;;14.90;99.90;;;;;;6225795;22;20022;-87
2022/09/20 09:46:52;;;;;;;0.00;0.00;;;14.90;99.90;;;;;;6224195;22;19915;-87
2022/09/20 09:49:20;;;;;;;;;;;15.10;99.90;;;;;;6251637;22;20098;-87
2022/09/20 09:52:06;;;;;;;0.00;0.00;;;15.30;99.90;;;;;;6225324;22;19925;-88
2022/09/20 09:54:36;;;;;;;0.03;0.03;;;15.50;99.90;;;;;;6227279;22;20070;-87
2022/09/20 09:57:39;;;;;;;0.00;0.00;;;15.70;99.90;;;;;;6250807;22;20011;-86
2022/09/20 10:00:17;;;;;;;0.00;0.00;;;15.60;99.90;;;;;;6225163;22;20027;-86
2022/09/20 10:03:25;;;;;;;0.13;0.05;;;15.50;99.90;;;;;;6251784;22;20037;-88
2022/09/20 10:06:12;;;;;;;0.00;0.00;;;15.30;99.90;;;;;;6211689;22;20024;-89
2022/09/20 10:09:00;;;;;;;0.10;0.10;;;15.10;99.90;;;;;;6250390;22;20095;-88
2022/09/20 10:11:37;;;;;;;0.10;0.10;;;15.00;99.90;;;;;;6224881;22;20086;-89
2022/09/20 10:14:39;;;;;;;0.00;0.00;;;14.90;99.90;;;;;;6224443;22;20015;-88
2022/09/20 10:17:27;;;;;;;0.00;0.00;;;14.80;99.90;;;;;;6179669;22;20012;-87
2022/09/20 10:20:03;;;;;;;0.20;0.10;;;14.70;99.90;;;;;;6224316;22;20055;-88
2022/09/20 10:22:53;;;;;;;0.00;0.00;;;14.80;99.90;;;;;;6225557;22;20016;-94
2022/09/20 10:25:33;;;;;;;0.30;0.00;;;14.80;99.90;;;;;;6225132;22;20086;-88
2022/09/20 10:28:04;;;;;;;0.00;0.00;;;14.80;99.90;;;;;;6229221;22;20020;-93
2022/09/20 10:31:15;;;;;;;0.00;0.00;;;14.80;99.90;;;;;;6249845;22;20011;-92
2022/09/20 10:33:51;;;;;;;0.00;0.00;;;14.80;99.90;;;;;;6187071;22;20019;-92
2022/09/20 10:36:23;;;;;;;0.00;0.00;;;14.80;99.90;;;;;;6224159;22;20015;-91
2022/09/20 10:39:12;;;;;;;0.00;0.00;;;14.80;99.90;;;;;;6223858;22;20015;-91
2022/09/20 10:45:06;;;;;;;0.05;0.05;;;14.80;99.90;;;;;;6250041;22;20042;-91
2022/09/20 10:48:02;;;;;;;0.00;0.00;;;14.90;99.90;;;;;;6224652;22;20020;-92
2022/09/20 10:50:50;;;;;;;0.08;0.00;;;14.90;99.90;;;;;;6278048;22;20022;-90
2022/09/20 10:53:24;;;;;;;0.10;0.10;;;15.00;99.90;;;;;;6249621;22;20027;-93
2022/09/20 10:56:15;;;;;;;0.00;0.00;;;15.10;99.90;;;;;;6246599;22;20020;-92
2022/09/20 10:58:47;;;;;;;0.00;0.00;;;15.20;99.90;;;;;;6246899;22;20024;-94
2022/09/20 11:01:30;;;;;;;0.00;0.00;;;15.30;99.90;;;;;;6222522;22;20058;-94
2022/09/20 11:04:14;;;;;;;0.35;0.00;;;15.40;99.90;;;;;;6249683;22;20025;-93
2022/09/20 11:07:16;;;;;;;0.00;0.00;;;15.40;99.90;;;;;;6249632;22;20011;-93
2022/09/20 11:09:56;;;;;;;0.00;0.00;;;15.70;99.90;;;;;;6249537;22;20016;-93
2022/09/20 11:12:32;;;;;;;1.38;0.10;;;15.90;99.90;;;;;;6224676;22;20019;-94
2022/09/20 11:15:42;;;;;;;0.00;0.00;;;16.00;99.90;;;;;;6249459;22;20062;-92
2022/09/20 11:18:22;;;;;;;0.05;0.00;;;16.00;99.90;;;;;;6224259;22;20098;-93
2022/09/20 11:21:06;;;;;;;0.03;0.03;;;16.10;99.90;;;;;;6224251;22;20026;-93
2022/09/20 11:23:38;;;;;;;0.00;0.00;;;16.10;99.90;;;;;;6224663;22;20031;-93
2022/09/20 11:26:12;;;;;;;0.47;0.10;;;16.00;99.90;;;;;;6224400;22;20016;-94
2022/09/20 11:28:45;;;;;;;0.00;0.00;;;15.90;99.90;;;;;;6225080;22;20038;-94
2022/09/20 11:31:23;;;;;;;0.10;0.00;;;16.10;99.90;;;;;;6224175;22;20054;-94
2022/09/20 11:34:11;;;;;;;0.00;0.00;;;16.30;99.90;;;;;;6224415;22;20015;-94
2022/09/20 11:36:52;;;;;;;0.10;0.10;;;16.50;99.90;;;;;;6224578;22;20034;-93
2022/09/20 11:39:32;;;;;;;0.00;0.00;;;16.70;99.90;;;;;;6253209;22;20016;-95
2022/09/20 11:42:02;;;;;;;0.00;0.00;;;16.70;99.90;;;;;;6255478;22;20367;-94
2022/09/20 11:44:28;;;;;;;0.00;0.00;;;16.70;99.90;;;;;;6225655;22;20042;-94
2022/09/20 11:47:13;;;;;;;0.00;0.00;;;17.10;99.90;;;;;;6226639;22;20090;-94
2022/09/20 11:49:53;;;;;;;0.00;0.00;;;17.30;99.90;;;;;;6224973;22;20070;-94
2022/09/20 11:52:43;;;;;;;0.00;0.00;;;17.50;99.90;;;;;;6249133;22;20047;-94
2022/09/20 11:55:38;;;;;;;0.03;0.03;;;17.50;99.90;;;;;;6223539;22;20325;-92
2022/09/20 11:58:11;;;;;;;0.00;0.00;;;17.70;99.90;;;;;;6223689;22;20012;-91
2022/09/20 12:00:42;;;;;;;0.00;0.00;;;17.80;99.90;;;;;;6249178;22;20012;-89
2022/09/20 12:03:27;;;;;;;0.00;0.00;;;17.90;99.90;;;;;;6223065;22;20513;-90
2022/09/20 12:06:34;;;;;;;0.00;0.00;;;17.70;99.90;;;;;;6227062;22;20019;-89
2022/09/20 12:09:25;;;;;;;0.00;0.00;;;17.50;99.90;;;;;;6248339;22;20355;-92
2022/09/20 12:11:59;;;;;;;0.20;0.20;;;17.20;99.90;;;;;;6227692;22;20043;-94
2022/09/20 12:14:31;;;;;;;0.00;0.00;;;17.00;99.90;;;;;;6225307;22;20336;-94
2022/09/20 12:16:57;;;;;;;0.10;0.10;;;16.70;99.90;;;;;;6224662;22;20016;-94
2022/09/20 12:19:32;;;;;;;0.00;0.00;;;16.50;99.90;;;;;;6224414;22;20103;-95
2022/09/20 12:21:57;;;;;;;0.22;0.10;;;16.40;99.90;;;;;;6224474;22;20019;-94
2022/09/20 12:24:39;;;;;;;0.10;0.00;;;16.30;99.90;;;;;;6222879;22;20012;-91
2022/09/20 12:27:26;;;;;;;0.00;0.00;;;15.70;99.90;;;;;;6221444;22;20023;-92
2022/09/20 12:29:53;;;;;;;0.00;0.00;;;16.20;99.90;;;;;;6221256;22;20524;-88
2022/09/20 12:32:32;;;;;;;0.00;0.00;;;16.20;99.90;;;;;;6223079;22;20026;-94
2022/09/20 12:34:58;;;;;;;0.00;0.00;;;16.10;99.90;;;;;;6224147;22;20015;-87
2022/09/20 12:37:25;;;;;;;0.13;0.10;;;16.00;99.90;;;;;;6223273;22;20015;-87
2022/09/20 12:39:54;;;;;;;0.00;0.00;;;15.90;99.90;;;;;;6248863;22;20023;-87
2022/09/20 12:42:32;;;;;;;0.00;0.00;;;15.90;99.90;;;;;;6249039;22;20016;-86
2022/09/20 12:45:14;;;;;;;0.05;0.05;;;15.80;99.90;;;;;;6248599;22;20023;-86
2022/09/20 12:47:50;;;;;;;0.47;0.00;;;15.90;99.90;;;;;;6223870;22;20016;-84
2022/09/20 12:53:03;;;;;;;0.00;0.00;;;16.20;99.90;;;;;;6206173;22;20030;-86
2022/09/20 12:55:48;;;;;;;0.10;0.10;;;16.60;99.90;;;;;;6223087;22;20016;-86
2022/09/20 12:58:14;;;;;;;0.10;0.00;;;16.90;99.90;;;;;;6248582;22;20467;-86
2022/09/20 13:00:48;;;;;;;0.00;0.00;;;17.10;99.90;;;;;;6248784;22;20023;-86
2022/09/20 13:03:38;;;;;;;0.20;0.20;;;17.20;99.90;;;;;;6275739;22;20281;-86
2022/09/20 13:06:21;;;;;;;0.08;0.08;;;17.20;99.90;;;;;;6249899;22;20499;-85
2022/09/20 13:09:08;;;;;;;0.00;0.00;;;17.30;99.90;;;;;;6249521;22;20016;-86
2022/09/20 13:11:49;;;;;;;0.00;0.00;;;17.20;99.90;;;;;;6249340;22;20016;-86
2022/09/20 13:14:21;;;;;;;0.00;0.00;;;17.40;99.90;;;;;;6223472;22;20023;-86
2022/09/20 13:17:05;;;;;;;0.68;0.30;;;17.60;99.90;;;;;;6224606;22;20012;-87
2022/09/20 13:19:36;;;;;;;0.13;0.10;;;17.50;99.90;;;;;;6248642;22;20038;-87
2022/09/20 13:22:25;;;;;;;0.47;0.47;;;17.40;99.90;;;;;;6250037;22;20023;-86
2022/09/20 13:24:59;;;;;;;0.00;0.00;;;17.10;99.90;;;;;;6224385;22;20019;-90
2022/09/20 13:27:56;;;;;;;0.38;0.38;;;16.90;99.90;;;;;;6249736;22;20016;-92
2022/09/20 13:30:25;;;;;;;0.00;0.00;;;16.70;99.90;;;;;;6223351;22;20020;-88
2022/09/20 13:32:54;;;;;;;0.10;0.10;;;16.50;99.90;;;;;;6248910;22;20016;-87
2022/09/20 13:35:31;;;;;;;0.00;0.00;;;16.40;99.90;;;;;;6222958;22;20022;-88
2022/09/20 13:38:10;;;;;;;0.00;0.00;;;16.30;99.90;;;;;;6249370;22;20043;-87
2022/09/20 13:40:42;;;;;;;0.30;0.00;;;16.40;99.90;;;;;;6224944;22;20456;-88
2022/09/20 13:43:42;;;;;;;0.10;0.10;;;16.70;99.90;;;;;;6248935;22;20071;-88
2022/09/20 13:46:20;;;;;;;0.00;0.00;;;17.10;99.90;;;;;;6222685;22;20024;-88
2022/09/20 13:48:55;;;;;;;0.00;0.00;;;16.80;99.90;;;;;;6224485;22;20031;-88
2022/09/20 13:51:29;;;;;;;0.00;0.00;;;17.60;99.90;;;;;;6223718;22;20027;-89
2022/09/20 13:54:29;;;;;;;0.05;0.00;;;17.70;99.90;;;;;;6249607;22;20016;-88
2022/09/20 13:57:00;;;;;;;0.00;0.00;;;17.30;99.90;;;;;;6249223;22;20042;-88
2022/09/20 13:59:44;;;;;;;0.88;0.45;;;17.10;99.90;;;;;;6249619;22;20019;-89
2022/09/20 14:02:30;;;;;;;0.03;0.00;;;16.90;99.90;;;;;;6249388;22;20114;-89
2022/09/20 14:05:00;;;;;;;0.00;0.00;;;16.80;99.90;;;;;;6224306;22;20020;-88
2022/09/20 14:07:29;;;;;;;0.00;0.00;;;16.70;99.90;;;;;;6250553;22;20016;-88